< < Back
Terminal Aerodrome Forecast


Current Version              Previous Versions:   1  2  3  4  5  6  7  8  9  

Terminal Aerodrome Forecast

271
FTUS42 KCAE 010200 AAA
TAFAGS
TAF AMD
KAGS 010211Z 0102/0124 28009KT P6SM SCT250
     FM011000 VRB05KT 6SM BR BKN120
     FM011400 06007KT P6SM SKC=



Latest METAR

919
SAUS70 KWBC 010400 RRJ
MTRAGS
METAR KAGS 010353Z 25012KT 10SM CLR 21/09 A2994 RMK AO2 SLP138
T02110089


USA.gov is the U.S. government's official web portal to all federal, state and local government web resources and services.